Lobo

Go HERE for most recent data if this page is not up to date.

Jump to table bottom
Date/Time Temp deg F RH % 24 Hr Snow (in) Snow Depth (in) H2O (in)
08/19 23:00 59.3 41 "NAN" 2.2 0.00
08/19 22:00 60.4 39 "NAN" 1.5 0.00
08/19 21:00 61.3 38 "NAN" 1.4 0.00
08/19 20:00 63.0 39 "NAN" 1.7 0.00
08/19 19:00 65.3 40 "NAN" 1.2 0.00
08/19 18:00 66.1 36 "NAN" 0.0 0.00
08/19 17:00 70.1 35 "NAN" 1.1 0.00
08/19 16:00 71.3 32 "NAN" 1.1 0.00
08/19 15:00 68.7 31 "NAN" -12.2 0.00
08/19 14:00 70.6 28 "NAN" -12.5 0.00
08/19 13:00 69.7 28 "NAN" -11.8 0.00
08/19 12:00 66.8 31 "NAN" 1.2 0.00
08/19 11:00 63.6 34 "NAN" 127.5 0.00
08/19 10:00 61.2 40 "NAN" 0.7 0.00
08/19 09:00 58.7 40 "NAN" 1.5 0.00
08/19 08:00 56.9 43 "NAN" 1.3 0.00
08/19 07:00 57.0 44 "NAN" 1.4 0.00
08/19 06:00 57.1 41 "NAN" 1.4 0.00
08/19 05:00 57.2 41 "NAN" 1.0 0.00
08/19 04:00 57.3 42 "NAN" 1.5 0.00
08/19 03:00 57.8 42 "NAN" 1.3 0.00
08/19 02:00 58.7 40 "NAN" 1.4 0.00
08/19 01:00 59.5 38 "NAN" 1.3 0.00
08/19 00:00 60.2 37 "NAN" 1.4 0.00
08/18 23:00 60.7 35 "NAN" 1.2 0.00
08/18 22:00 61.7 34 "NAN" 1.4 0.00
08/18 21:00 63.1 35 "NAN" 1.0 0.00
08/18 20:00 65.1 33 "NAN" 0.4 0.00
08/18 19:00 68.3 29 "NAN" 0.0 0.00
08/18 18:00 70.4 25 "NAN" -0.1 0.00
08/18 17:00 72.4 19 "NAN" -115.8 0.00
08/18 16:00 74.1 20 "NAN" 2.4 0.00
08/18 15:00 73.7 19 "NAN" -132.3 0.00
08/18 14:00 72.6 21 "NAN" -12.1 0.00
08/18 13:00 71.3 22 "NAN" -115.8 0.00
08/18 12:00 68.9 22 "NAN" -133.7 0.00
08/18 11:00 67.4 22 "NAN" -10.5 0.00
08/18 10:00 63.4 31 "NAN" -12.1 0.00
08/18 09:00 59.6 32 "NAN" 2.2 0.00
08/18 08:00 57.1 35 "NAN" 2.7 0.00
08/18 07:00 57.0 34 "NAN" 1.1 0.00
08/18 06:00 56.0 33 "NAN" 1.3 0.00
08/18 05:00 57.4 32 "NAN" -11.9 0.00
08/18 04:00 57.2 33 "NAN" 1.3 0.00
08/18 03:00 57.8 30 "NAN" 2.7 0.00
08/18 02:00 59.3 27 "NAN" 2.6 0.00
08/18 01:00 59.8 24 "NAN" 1.8 0.00
08/18 00:00 60.0 22 "NAN" 1.9 0.00
.